createdAt,value
2023-04-25T00:01:58.103Z,49.25
2023-04-25T00:04:25.187Z,49.18
2023-04-25T00:06:53.627Z,49.17
2023-04-25T00:09:20.713Z,49.16
2023-04-25T00:11:47.626Z,49.00
2023-04-25T00:14:14.903Z,49.18
2023-04-25T00:16:42.570Z,49.48
2023-04-25T00:19:10.856Z,49.45
2023-04-25T00:21:41.877Z,49.50
2023-04-25T00:24:09.154Z,49.69
2023-04-25T00:26:37.269Z,49.26
2023-04-25T00:29:04.434Z,49.70
2023-04-25T00:31:31.910Z,49.24
2023-04-25T00:33:58.880Z,49.70
2023-04-25T00:36:26.149Z,49.63
2023-04-25T00:38:54.678Z,49.57
2023-04-25T00:41:21.800Z,49.73
2023-04-25T00:43:50.582Z,49.60
2023-04-25T00:46:17.758Z,49.72
2023-04-25T00:48:44.741Z,49.78
2023-04-25T00:51:17.221Z,49.48
2023-04-25T00:53:44.594Z,49.71
2023-04-25T00:56:11.819Z,49.96
2023-04-25T00:58:39.695Z,49.80
2023-04-25T01:01:08.200Z,50.04
2023-04-25T01:03:42.251Z,49.96
2023-04-25T01:06:12.719Z,49.90
2023-04-25T01:08:40.744Z,49.77
2023-04-25T01:11:08.046Z,49.64
2023-04-25T01:13:36.365Z,50.19
2023-04-25T01:16:04.670Z,49.72
2023-04-25T01:18:31.722Z,49.84
2023-04-25T01:21:08.131Z,49.69
2023-04-25T01:23:35.643Z,49.93
2023-04-25T01:26:02.981Z,49.97
2023-04-25T01:28:30.147Z,50.19
2023-04-25T01:30:58.147Z,49.96
2023-04-25T01:33:25.154Z,50.05
2023-04-25T01:35:52.601Z,49.82
2023-04-25T01:38:19.730Z,50.23
2023-04-25T01:40:48.509Z,50.11
2023-04-25T01:43:15.727Z,50.30
2023-04-25T01:45:43.652Z,50.19
2023-04-25T01:48:12.644Z,50.10
2023-04-25T01:50:40.770Z,50.39
2023-04-25T01:53:07.976Z,49.93
2023-04-25T01:55:34.941Z,50.17
2023-04-25T01:58:03.996Z,50.40
2023-04-25T02:00:31.055Z,49.94
2023-04-25T02:03:01.533Z,49.99
2023-04-25T02:05:28.553Z,50.18
2023-04-25T02:07:55.581Z,50.00
2023-04-25T02:10:22.567Z,50.22
2023-04-25T02:12:49.503Z,50.14
2023-04-25T02:15:16.417Z,50.08
2023-04-25T02:17:43.376Z,50.30
2023-04-25T02:20:11.486Z,50.32
2023-04-25T02:22:38.425Z,50.02
2023-04-25T02:25:06.070Z,50.45
2023-04-25T02:27:33.056Z,50.40
2023-04-25T02:30:00.002Z,50.19
2023-04-25T02:32:27.167Z,50.01
2023-04-25T02:34:54.877Z,50.35
2023-04-25T02:37:21.788Z,50.30
2023-04-25T02:39:48.749Z,50.44
2023-04-25T02:42:15.694Z,50.32
2023-04-25T02:44:42.656Z,50.14
2023-04-25T02:47:09.641Z,50.29
2023-04-25T02:49:36.828Z,50.43
2023-04-25T02:52:03.941Z,50.64
2023-04-25T02:54:31.615Z,50.37
2023-04-25T02:56:58.649Z,50.46
2023-04-25T02:59:25.654Z,50.38
2023-04-25T03:01:52.557Z,50.17
2023-04-25T03:04:20.588Z,50.25
2023-04-25T03:06:47.989Z,50.14
2023-04-25T03:09:14.935Z,50.33
2023-04-25T03:11:42.057Z,50.42
2023-04-25T03:14:09.120Z,50.51
2023-04-25T03:16:36.210Z,50.16
2023-04-25T03:19:04.867Z,50.37
2023-04-25T03:21:36.461Z,50.44
2023-04-25T03:24:05.699Z,50.56
2023-04-25T03:26:32.719Z,50.35
2023-04-25T03:28:59.689Z,50.34
2023-04-25T03:31:26.615Z,50.44
2023-04-25T03:33:53.685Z,50.42
2023-04-25T03:36:20.715Z,50.41
2023-04-25T03:38:47.859Z,50.52
2023-04-25T03:41:14.787Z,50.61
2023-04-25T03:43:41.694Z,50.48
2023-04-25T03:46:08.688Z,50.37
2023-04-25T03:48:35.676Z,50.52
2023-04-25T03:51:02.630Z,50.22
2023-04-25T03:53:29.770Z,50.40
2023-04-25T03:55:56.838Z,50.42
2023-04-25T03:58:25.701Z,50.56
2023-04-25T04:00:52.644Z,50.46
2023-04-25T04:03:19.715Z,50.41
2023-04-25T04:05:47.812Z,50.70
2023-04-25T04:08:15.024Z,50.63
2023-04-25T04:10:41.942Z,50.70
2023-04-25T04:13:08.958Z,50.53
2023-04-25T04:15:35.998Z,50.59
2023-04-25T04:18:05.863Z,50.44
2023-04-25T04:20:32.851Z,50.54
2023-04-25T04:22:59.817Z,50.33
2023-04-25T04:25:27.555Z,50.39
2023-04-25T04:27:57.443Z,50.53
2023-04-25T04:30:30.762Z,50.45
2023-04-25T04:32:58.023Z,50.57
2023-04-25T04:35:25.343Z,50.37
2023-04-25T04:37:52.429Z,50.25
2023-04-25T04:40:19.592Z,50.42
2023-04-25T04:42:46.846Z,50.96
2023-04-25T04:45:14.272Z,51.11
2023-04-25T04:47:41.386Z,51.06
2023-04-25T04:50:10.620Z,50.97
2023-04-25T04:52:38.218Z,51.16
2023-04-25T04:55:07.150Z,51.40
2023-04-25T04:57:34.389Z,51.34
2023-04-25T05:00:01.817Z,51.35
2023-04-25T05:02:29.473Z,51.19
2023-04-25T05:11:14.567Z,50.85
2023-04-25T05:13:41.494Z,50.97
2023-04-25T05:16:08.465Z,50.89
2023-04-25T05:18:35.614Z,50.51
2023-04-25T05:21:02.685Z,50.78
2023-04-25T05:23:32.600Z,50.35
2023-04-25T05:26:01.130Z,50.28
2023-04-25T05:28:28.145Z,50.39
2023-04-25T05:30:55.153Z,49.50
2023-04-25T05:33:22.211Z,47.74
2023-04-25T05:35:49.204Z,48.20
2023-04-25T05:38:16.161Z,48.23
2023-04-25T05:40:43.223Z,47.76
2023-04-25T05:43:10.202Z,47.79
2023-04-25T05:45:37.246Z,48.39
2023-04-25T05:48:04.398Z,48.86
2023-04-25T05:50:31.572Z,49.13
2023-04-25T05:52:58.540Z,49.05
2023-04-25T05:55:26.119Z,49.77
2023-04-25T05:57:53.102Z,49.57
2023-04-25T06:00:20.467Z,49.65
2023-04-25T06:02:47.545Z,49.65
2023-04-25T06:05:14.696Z,48.42
2023-04-25T06:07:41.720Z,44.75
2023-04-25T06:10:09.497Z,44.14
2023-04-25T06:12:36.542Z,44.18
2023-04-25T06:15:08.135Z,43.50
2023-04-25T06:17:41.042Z,43.64
2023-04-25T06:20:09.600Z,43.25
2023-04-25T06:22:36.615Z,43.38
2023-04-25T06:25:05.701Z,43.68
2023-04-25T06:27:32.996Z,44.11
2023-04-25T06:30:00.092Z,44.35
2023-04-25T06:32:29.347Z,44.77
2023-04-25T06:34:56.438Z,45.76
2023-04-25T06:37:23.536Z,46.02
2023-04-25T06:39:50.698Z,46.47
2023-04-25T06:42:17.747Z,46.88
2023-04-25T06:44:44.869Z,47.27
2023-04-25T06:47:11.980Z,47.91
2023-04-25T06:49:39.060Z,48.01
2023-04-25T06:52:06.109Z,48.21
2023-04-25T06:54:33.088Z,48.79
2023-04-25T06:57:02.394Z,47.12
2023-04-25T06:59:29.367Z,48.92
2023-04-25T07:01:56.348Z,49.06
2023-04-25T07:04:23.789Z,49.71
2023-04-25T07:06:51.117Z,49.92
2023-04-25T07:09:18.447Z,50.10
2023-04-25T07:11:45.439Z,50.55
2023-04-25T07:14:12.490Z,50.13
2023-04-25T07:16:39.516Z,46.10
2023-04-25T07:19:07.054Z,48.13
2023-04-25T07:21:34.701Z,49.02
2023-04-25T07:24:01.694Z,48.99
2023-04-25T07:26:28.800Z,49.00
2023-04-25T07:28:56.121Z,50.45
2023-04-25T07:31:24.172Z,49.49
2023-04-25T07:33:52.585Z,50.03
2023-04-25T07:36:19.857Z,49.99
2023-04-25T07:38:46.921Z,50.21
2023-04-25T07:41:13.921Z,50.26
2023-04-25T07:43:41.138Z,50.50
2023-04-25T07:46:08.205Z,50.68
2023-04-25T07:48:35.329Z,50.56
2023-04-25T07:51:04.341Z,50.61
2023-04-25T07:53:31.765Z,50.89
2023-04-25T07:55:58.827Z,50.90
2023-04-25T07:58:26.052Z,50.57
2023-04-25T08:00:53.195Z,50.72
2023-04-25T08:03:20.423Z,51.51
2023-04-25T08:05:47.779Z,50.81
2023-04-25T08:08:14.877Z,50.63
2023-04-25T08:10:43.481Z,50.30
2023-04-25T08:13:10.475Z,50.80
2023-04-25T08:15:37.518Z,51.16
2023-04-25T08:18:04.689Z,50.89
2023-04-25T08:20:32.018Z,51.24
2023-04-25T08:22:59.107Z,50.83
2023-04-25T08:25:26.119Z,51.01
2023-04-25T08:27:53.172Z,50.77
2023-04-25T08:30:20.652Z,50.98
2023-04-25T08:32:47.811Z,50.92
2023-04-25T08:35:15.215Z,51.01
2023-04-25T08:37:42.813Z,50.73
2023-04-25T08:40:13.694Z,50.46
2023-04-25T08:42:43.003Z,50.47
2023-04-25T08:45:11.453Z,50.26
2023-04-25T08:47:41.173Z,50.26
2023-04-25T08:50:08.694Z,50.16
2023-04-25T08:52:46.733Z,49.96
2023-04-25T08:55:14.490Z,50.10
2023-04-25T08:57:44.985Z,50.32
2023-04-25T09:00:13.929Z,50.07
2023-04-25T09:02:41.689Z,50.07
2023-04-25T09:05:11.196Z,50.03
2023-04-25T09:07:38.869Z,50.30
2023-04-25T09:10:06.461Z,50.31
2023-04-25T09:12:33.578Z,50.30
2023-04-25T09:15:20.547Z,50.26
2023-04-25T09:17:57.117Z,50.00
2023-04-25T09:20:24.357Z,50.04
2023-04-25T09:22:51.501Z,50.25
2023-04-25T09:25:18.870Z,50.27
2023-04-25T09:27:53.545Z,49.93
2023-04-25T09:30:31.015Z,50.18
2023-04-25T09:33:01.970Z,50.77
2023-04-25T09:35:29.196Z,49.26
2023-04-25T09:37:57.114Z,49.12
2023-04-25T09:40:24.242Z,49.96
2023-04-25T09:42:51.898Z,49.87
2023-04-25T09:45:19.026Z,49.97
2023-04-25T09:47:46.150Z,50.52
2023-04-25T09:50:17.932Z,47.39
2023-04-25T09:52:45.199Z,46.38
2023-04-25T09:55:13.023Z,47.25
2023-04-25T09:57:41.276Z,48.20
2023-04-25T10:00:13.982Z,49.06
2023-04-25T10:02:44.445Z,48.96
2023-04-25T10:05:12.327Z,49.65
2023-04-25T10:07:41.156Z,49.91
2023-04-25T10:10:09.000Z,49.86
2023-04-25T10:12:36.093Z,49.80
2023-04-25T10:15:05.598Z,49.96
2023-04-25T10:17:34.271Z,50.14
2023-04-25T10:20:05.278Z,50.25
2023-04-25T10:22:38.572Z,50.57
2023-04-25T10:25:06.750Z,50.80
2023-04-25T10:27:33.962Z,50.62
2023-04-25T10:30:16.992Z,50.68
2023-04-25T10:32:44.687Z,51.06
2023-04-25T10:35:28.304Z,50.96
2023-04-25T10:38:12.189Z,51.14
2023-04-25T10:40:39.475Z,50.93
2023-04-25T10:43:36.202Z,51.19
2023-04-25T10:46:04.508Z,51.41
2023-04-25T10:48:32.683Z,50.04
2023-04-25T10:51:11.258Z,50.11
2023-04-25T10:53:38.547Z,50.55
2023-04-25T10:56:22.833Z,50.10
2023-04-25T10:58:52.173Z,46.83
2023-04-25T11:01:26.850Z,44.36
2023-04-25T11:03:59.791Z,45.37
2023-04-25T11:06:44.191Z,47.19
2023-04-25T11:09:16.234Z,46.21
2023-04-25T11:11:43.363Z,44.10
2023-04-25T11:14:10.619Z,45.56
2023-04-25T11:16:37.926Z,47.02
2023-04-25T11:19:05.638Z,47.59
2023-04-25T11:21:33.320Z,48.19
2023-04-25T11:24:01.338Z,48.51
2023-04-25T11:26:28.411Z,48.60
2023-04-25T11:29:00.847Z,49.04
2023-04-25T11:31:28.285Z,49.28
2023-04-25T11:33:56.689Z,49.79
2023-04-25T11:36:25.616Z,49.42
2023-04-25T11:38:53.416Z,49.22
2023-04-25T11:41:21.691Z,49.96
2023-04-25T11:43:51.579Z,50.21
2023-04-25T11:46:22.004Z,50.35
2023-04-25T11:48:49.549Z,50.63
2023-04-25T11:51:16.886Z,50.54
2023-04-25T11:53:46.180Z,50.60
2023-04-25T11:56:13.869Z,50.92
2023-04-25T11:59:02.080Z,50.89
2023-04-25T12:01:36.825Z,51.12
2023-04-25T12:04:17.882Z,50.42
2023-04-25T12:06:48.882Z,50.67
2023-04-25T12:09:19.441Z,51.09
2023-04-25T12:11:48.676Z,51.01
2023-04-25T12:14:26.050Z,51.12
2023-04-25T12:16:53.200Z,50.69
2023-04-25T12:19:21.825Z,50.46
2023-04-25T12:21:58.053Z,50.73
2023-04-25T12:24:29.045Z,49.09
2023-04-25T12:27:07.479Z,48.85
2023-04-25T12:29:48.685Z,49.08
2023-04-25T12:32:17.402Z,50.12
2023-04-25T12:34:44.834Z,50.48
2023-04-25T12:37:12.853Z,50.47
2023-04-25T12:39:40.668Z,51.12
2023-04-25T12:42:10.019Z,51.83
2023-04-25T12:44:37.117Z,51.75
2023-04-25T12:47:04.784Z,51.95
2023-04-25T12:49:32.017Z,51.65
2023-04-25T12:51:59.341Z,50.99
2023-04-25T12:54:27.263Z,51.20
2023-04-25T12:56:54.416Z,51.31
2023-04-25T12:59:22.548Z,50.94
2023-04-25T13:01:49.814Z,51.11
2023-04-25T13:04:17.520Z,50.73
2023-04-25T13:06:44.968Z,50.69
2023-04-25T13:09:13.802Z,50.41
2023-04-25T13:11:42.205Z,50.81
2023-04-25T13:14:09.711Z,50.69
2023-04-25T13:16:37.732Z,50.70
2023-04-25T13:19:05.027Z,50.48
2023-04-25T13:21:33.880Z,50.51
2023-04-25T13:24:01.103Z,50.22
2023-04-25T13:26:28.403Z,50.34
2023-04-25T13:28:55.587Z,50.12
2023-04-25T13:31:22.828Z,50.28
2023-04-25T13:33:50.690Z,49.54
2023-04-25T13:36:18.002Z,49.09
2023-04-25T13:38:46.472Z,49.46
2023-04-25T13:41:18.987Z,49.13
2023-04-25T13:43:49.353Z,49.33
2023-04-25T13:46:35.446Z,49.64
2023-04-25T13:49:12.222Z,49.26
2023-04-25T13:51:40.194Z,49.60
2023-04-25T13:54:07.427Z,49.90
2023-04-25T13:56:34.716Z,49.78
2023-04-25T13:59:01.843Z,49.63
2023-04-25T14:01:29.672Z,49.62
2023-04-25T14:03:56.817Z,49.57
2023-04-25T14:06:25.390Z,45.88
2023-04-25T14:08:52.591Z,46.55
2023-04-25T14:11:19.739Z,47.07
2023-04-25T14:13:47.404Z,47.66
2023-04-25T14:16:14.607Z,47.44
2023-04-25T14:18:41.900Z,47.84
2023-04-25T14:21:09.322Z,47.54
2023-04-25T14:23:36.340Z,47.67
2023-04-25T14:26:03.546Z,47.09
2023-04-25T14:28:30.745Z,47.58
2023-04-25T14:30:57.958Z,47.34
2023-04-25T14:33:25.095Z,47.42
2023-04-25T14:35:52.236Z,47.44
2023-04-25T14:38:24.459Z,47.80
2023-04-25T14:40:51.943Z,47.82
2023-04-25T14:43:19.435Z,46.75
2023-04-25T14:45:46.808Z,47.02
2023-04-25T14:48:14.128Z,47.44
2023-04-25T14:50:41.272Z,47.30
2023-04-25T14:53:08.551Z,47.38
2023-04-25T14:55:35.621Z,46.86
2023-04-25T14:58:02.565Z,46.92
2023-04-25T15:00:29.851Z,46.39
2023-04-25T15:02:57.428Z,45.31
2023-04-25T15:05:24.808Z,45.99
2023-04-25T15:07:52.096Z,45.86
2023-04-25T15:10:19.969Z,43.26
2023-04-25T15:12:48.025Z,44.87
2023-04-25T15:15:22.547Z,45.74
2023-04-25T15:17:52.845Z,45.70
2023-04-25T15:20:20.049Z,45.92
2023-04-25T15:22:47.373Z,46.33
2023-04-25T15:25:14.348Z,46.06
2023-04-25T15:27:44.934Z,46.16
2023-04-25T15:30:15.067Z,46.36
2023-04-25T15:32:46.191Z,46.59
2023-04-25T15:35:14.069Z,46.75
2023-04-25T15:37:41.914Z,47.21
2023-04-25T15:40:27.325Z,46.85
2023-04-25T15:42:54.447Z,46.46
2023-04-25T15:45:26.500Z,47.13
2023-04-25T15:47:57.572Z,47.17
2023-04-25T15:50:25.299Z,47.31
2023-04-25T15:52:52.655Z,47.54
2023-04-25T15:55:26.985Z,47.86
2023-04-25T15:57:54.210Z,47.92
2023-04-25T16:00:22.797Z,48.25
2023-04-25T16:02:53.152Z,48.04
2023-04-25T16:05:20.860Z,48.87
2023-04-25T16:07:48.418Z,48.20
2023-04-25T16:10:20.681Z,48.49
2023-04-25T16:12:49.911Z,48.73
2023-04-25T16:15:17.912Z,48.97
2023-04-25T16:17:45.114Z,48.54
2023-04-25T16:20:13.810Z,48.26
2023-04-25T16:22:42.454Z,48.25
2023-04-25T16:25:10.206Z,48.19
2023-04-25T16:27:40.741Z,47.87
2023-04-25T16:30:10.375Z,48.04
2023-04-25T16:32:38.612Z,48.30
2023-04-25T16:35:06.195Z,48.89
2023-04-25T16:37:33.344Z,48.76
2023-04-25T16:40:00.412Z,48.49
2023-04-25T16:42:27.358Z,48.66
2023-04-25T16:44:54.354Z,48.76
2023-04-25T16:47:21.525Z,48.84
2023-04-25T16:49:48.824Z,48.70
2023-04-25T16:52:16.854Z,46.87
2023-04-25T16:54:44.019Z,47.43
2023-04-25T16:57:11.766Z,46.39
2023-04-25T16:59:39.637Z,47.10
2023-04-25T17:02:10.522Z,47.61
2023-04-25T17:04:37.987Z,47.55
2023-04-25T17:07:05.145Z,47.82
2023-04-25T17:09:33.264Z,47.81
2023-04-25T17:12:00.653Z,47.91
2023-04-25T17:14:27.716Z,48.51
2023-04-25T17:16:55.065Z,48.30
2023-04-25T17:19:22.654Z,48.19
2023-04-25T17:21:49.865Z,48.24
2023-04-25T17:24:18.512Z,48.07
2023-04-25T17:26:46.255Z,48.12
2023-04-25T17:29:15.875Z,48.35
2023-04-25T17:31:43.128Z,48.14
2023-04-25T17:34:10.529Z,48.11
2023-04-25T17:36:37.732Z,48.30
2023-04-25T17:39:06.800Z,48.35
2023-04-25T17:41:33.975Z,48.36
2023-04-25T17:44:01.108Z,48.53
2023-04-25T17:46:29.899Z,48.37
2023-04-25T17:48:58.594Z,48.13
2023-04-25T17:51:25.872Z,47.75
2023-04-25T17:53:52.901Z,47.79
2023-04-25T17:58:53.452Z,47.71
2023-04-25T18:01:21.104Z,47.66
2023-04-25T18:03:50.647Z,48.38
2023-04-25T18:06:18.537Z,48.31
2023-04-25T18:08:46.450Z,48.37
2023-04-25T18:11:15.893Z,48.22
2023-04-25T18:13:43.584Z,48.22
2023-04-25T18:16:11.109Z,48.56
2023-04-25T18:18:38.504Z,48.08
2023-04-25T18:21:08.178Z,48.35
2023-04-25T18:23:37.214Z,48.26
2023-04-25T18:26:05.482Z,48.45
2023-04-25T18:28:35.110Z,48.53
2023-04-25T18:31:03.052Z,48.57
2023-04-25T18:33:32.414Z,48.92
2023-04-25T18:35:59.937Z,48.87
2023-04-25T18:41:10.668Z,49.11
2023-04-25T18:43:45.343Z,49.36
2023-04-25T18:46:12.780Z,49.59
2023-04-25T18:48:39.996Z,50.00
2023-04-25T18:51:07.468Z,50.05
2023-04-25T18:53:34.798Z,49.92
2023-04-25T18:56:02.257Z,49.60
2023-04-25T18:58:29.614Z,49.48
2023-04-25T19:00:57.252Z,49.29
2023-04-25T19:03:24.556Z,49.42
2023-04-25T19:05:52.391Z,48.86
2023-04-25T19:08:20.604Z,49.05
2023-04-25T19:10:47.913Z,48.74
2023-04-25T19:13:15.495Z,48.61
2023-04-25T19:15:42.726Z,48.46
2023-04-25T19:18:10.599Z,48.29
2023-04-25T19:20:38.467Z,48.27
2023-04-25T19:23:06.032Z,48.62
2023-04-25T19:25:35.179Z,48.39
2023-04-25T19:28:02.924Z,48.48
2023-04-25T19:30:30.654Z,48.15
2023-04-25T19:33:01.864Z,48.08
2023-04-25T19:35:31.345Z,48.08
2023-04-25T19:37:59.320Z,48.11
2023-04-25T19:40:29.770Z,47.52
2023-04-25T19:42:57.705Z,46.96
2023-04-25T19:45:25.170Z,47.02
2023-04-25T19:47:54.554Z,46.97
2023-04-25T19:50:23.654Z,46.71
2023-04-25T19:52:53.962Z,47.02
2023-04-25T19:55:24.886Z,46.84
2023-04-25T19:57:52.857Z,46.48
2023-04-25T20:00:21.766Z,47.43
2023-04-25T20:02:49.457Z,46.92
2023-04-25T20:05:18.258Z,46.96
2023-04-25T20:07:45.679Z,47.04
2023-04-25T20:10:17.037Z,46.49
2023-04-25T20:12:45.097Z,46.51
2023-04-25T20:15:13.628Z,46.66
2023-04-25T20:17:42.407Z,46.43
2023-04-25T20:20:13.195Z,46.74
2023-04-25T20:22:40.995Z,46.11
2023-04-25T20:25:09.756Z,45.88
2023-04-25T20:27:40.593Z,46.07
2023-04-25T20:30:09.305Z,46.04
2023-04-25T20:32:38.323Z,45.83
2023-04-25T20:35:09.334Z,46.28
2023-04-25T20:37:37.120Z,46.30
2023-04-25T20:40:08.067Z,46.13
2023-04-25T20:42:36.733Z,46.29
2023-04-25T20:45:08.048Z,46.00
2023-04-25T20:47:35.844Z,46.14
2023-04-25T20:50:06.500Z,46.36
2023-04-25T20:52:35.414Z,46.05
2023-04-25T20:55:02.668Z,46.42
2023-04-25T20:57:30.371Z,46.21
2023-04-25T20:59:58.097Z,46.07
2023-04-25T21:02:25.530Z,46.02
2023-04-25T21:04:52.735Z,46.04
2023-04-25T21:07:21.439Z,46.09
2023-04-25T21:09:48.843Z,46.22
2023-04-25T21:12:16.231Z,46.45
2023-04-25T21:14:43.711Z,46.16
2023-04-25T21:17:10.968Z,46.13
2023-04-25T21:19:37.980Z,46.27
2023-04-25T21:22:05.083Z,46.35
2023-04-25T21:24:33.555Z,47.08
2023-04-25T21:27:01.542Z,45.58
2023-04-25T21:29:28.936Z,46.46
2023-04-25T21:31:57.182Z,46.61
2023-04-25T21:34:24.678Z,46.96
2023-04-25T21:36:51.734Z,46.71
2023-04-25T21:39:19.654Z,46.92
2023-04-25T21:41:47.124Z,47.13
2023-04-25T21:44:16.062Z,47.11
2023-04-25T21:46:46.499Z,47.11
2023-04-25T21:49:13.828Z,47.04
2023-04-25T21:51:41.007Z,47.00
2023-04-25T21:54:08.533Z,47.14
2023-04-25T21:56:35.597Z,47.02
2023-04-25T21:59:02.773Z,47.36
2023-04-25T22:01:29.873Z,47.34
2023-04-25T22:03:57.232Z,47.26
2023-04-25T22:06:24.792Z,47.38
2023-04-25T22:08:52.298Z,47.54
2023-04-25T22:11:19.577Z,47.45
2023-04-25T22:13:47.553Z,47.43
2023-04-25T22:16:14.997Z,47.30
2023-04-25T22:18:46.927Z,47.43
2023-04-25T22:21:13.975Z,47.68
2023-04-25T22:23:41.046Z,47.37
2023-04-25T22:26:08.242Z,47.59
2023-04-25T22:28:35.869Z,47.66
2023-04-25T22:31:03.237Z,47.67
2023-04-25T22:33:30.349Z,47.52
2023-04-25T22:35:57.453Z,47.53
2023-04-25T22:38:24.470Z,47.66
2023-04-25T22:40:52.526Z,47.60
2023-04-25T22:43:20.176Z,47.87
2023-04-25T22:45:47.866Z,47.94
2023-04-25T22:48:14.839Z,48.03
2023-04-25T22:50:41.967Z,48.00
2023-04-25T22:53:10.572Z,47.91
2023-04-25T22:55:37.668Z,47.96
2023-04-25T22:58:05.209Z,47.96
2023-04-25T23:00:34.648Z,47.77
2023-04-25T23:03:04.503Z,47.93
2023-04-25T23:05:33.164Z,47.72
2023-04-25T23:08:00.554Z,48.00
2023-04-25T23:10:28.950Z,47.93
2023-04-25T23:12:58.509Z,47.87
2023-04-25T23:15:31.185Z,48.05
2023-04-25T23:17:58.960Z,47.85
2023-04-25T23:20:26.155Z,48.10
2023-04-25T23:22:53.409Z,48.14
2023-04-25T23:25:21.792Z,47.99
2023-04-25T23:27:48.842Z,48.14
2023-04-25T23:30:16.221Z,48.33
2023-04-25T23:32:43.250Z,48.11
2023-04-25T23:35:10.958Z,48.52
2023-04-25T23:37:46.140Z,48.32
2023-04-25T23:40:13.260Z,48.52
2023-04-25T23:42:41.481Z,48.51
2023-04-25T23:45:09.423Z,48.44
2023-04-25T23:47:36.764Z,48.51
2023-04-25T23:50:04.269Z,48.63
2023-04-25T23:52:31.337Z,48.33
2023-04-25T23:54:58.341Z,48.36
2023-04-25T23:57:25.401Z,48.50
2023-04-25T23:59:52.499Z,48.59
